sensor_id;sensor_type;location;lat;lon;timestamp;P1;durP1;ratioP1;P2;durP2;ratioP2
78416;SDS011;67715;46.170;6.140;2023-06-14T00:00:02;4.28;;;3.25;;
78416;SDS011;67715;46.170;6.140;2023-06-14T00:02:29;4.43;;;3.25;;
78416;SDS011;67715;46.170;6.140;2023-06-14T00:04:54;3.77;;;2.93;;
78416;SDS011;67715;46.170;6.140;2023-06-14T00:07:21;6.10;;;3.37;;
78416;SDS011;67715;46.170;6.140;2023-06-14T00:10:07;9.15;;;3.60;;
78416;SDS011;67715;46.170;6.140;2023-06-14T00:12:33;5.95;;;4.15;;
78416;SDS011;67715;46.170;6.140;2023-06-14T00:14:58;6.13;;;3.90;;
78416;SDS011;67715;46.170;6.140;2023-06-14T00:17:23;5.37;;;3.97;;
78416;SDS011;67715;46.170;6.140;2023-06-14T00:19:49;6.93;;;3.95;;
78416;SDS011;67715;46.170;6.140;2023-06-14T00:22:15;4.90;;;4.20;;
78416;SDS011;67715;46.170;6.140;2023-06-14T00:24:40;6.60;;;4.20;;
78416;SDS011;67715;46.170;6.140;2023-06-14T00:27:05;6.13;;;4.07;;
78416;SDS011;67715;46.170;6.140;2023-06-14T00:29:31;5.20;;;3.90;;
78416;SDS011;67715;46.170;6.140;2023-06-14T00:31:56;4.57;;;3.80;;
78416;SDS011;67715;46.170;6.140;2023-06-14T00:34:22;4.80;;;3.87;;
78416;SDS011;67715;46.170;6.140;2023-06-14T00:36:47;6.47;;;4.20;;
78416;SDS011;67715;46.170;6.140;2023-06-14T00:39:12;5.27;;;3.60;;
78416;SDS011;67715;46.170;6.140;2023-06-14T00:41:39;6.77;;;3.83;;
78416;SDS011;67715;46.170;6.140;2023-06-14T00:44:04;5.63;;;3.65;;
78416;SDS011;67715;46.170;6.140;2023-06-14T00:46:30;5.82;;;4.45;;
78416;SDS011;67715;46.170;6.140;2023-06-14T00:48:56;5.68;;;4.63;;
78416;SDS011;67715;46.170;6.140;2023-06-14T00:51:22;6.72;;;3.70;;
78416;SDS011;67715;46.170;6.140;2023-06-14T00:53:47;4.97;;;3.90;;
78416;SDS011;67715;46.170;6.140;2023-06-14T00:56:13;7.03;;;4.35;;
78416;SDS011;67715;46.170;6.140;2023-06-14T00:58:39;5.47;;;3.53;;
78416;SDS011;67715;46.170;6.140;2023-06-14T01:01:04;4.60;;;4.13;;
78416;SDS011;67715;46.170;6.140;2023-06-14T01:03:30;4.30;;;3.50;;
78416;SDS011;67715;46.170;6.140;2023-06-14T01:06:04;6.22;;;4.13;;
78416;SDS011;67715;46.170;6.140;2023-06-14T01:08:51;3.40;;;2.67;;
78416;SDS011;67715;46.170;6.140;2023-06-14T01:11:24;6.60;;;3.38;;
78416;SDS011;67715;46.170;6.140;2023-06-14T01:13:53;4.43;;;3.13;;
78416;SDS011;67715;46.170;6.140;2023-06-14T01:16:19;4.65;;;3.35;;
78416;SDS011;67715;46.170;6.140;2023-06-14T01:18:45;5.20;;;3.67;;
78416;SDS011;67715;46.170;6.140;2023-06-14T01:21:22;5.03;;;3.88;;
78416;SDS011;67715;46.170;6.140;2023-06-14T01:23:49;4.75;;;3.30;;
78416;SDS011;67715;46.170;6.140;2023-06-14T01:26:18;5.10;;;3.58;;
78416;SDS011;67715;46.170;6.140;2023-06-14T01:28:47;5.05;;;3.67;;
78416;SDS011;67715;46.170;6.140;2023-06-14T01:31:16;9.82;;;4.80;;
78416;SDS011;67715;46.170;6.140;2023-06-14T01:33:43;4.70;;;3.88;;
78416;SDS011;67715;46.170;6.140;2023-06-14T01:36:08;6.07;;;4.30;;
78416;SDS011;67715;46.170;6.140;2023-06-14T01:38:34;6.38;;;4.00;;
78416;SDS011;67715;46.170;6.140;2023-06-14T01:41:01;5.95;;;4.60;;
78416;SDS011;67715;46.170;6.140;2023-06-14T01:43:28;6.25;;;4.75;;
78416;SDS011;67715;46.170;6.140;2023-06-14T01:45:55;5.45;;;4.40;;
78416;SDS011;67715;46.170;6.140;2023-06-14T01:48:21;4.88;;;4.20;;
78416;SDS011;67715;46.170;6.140;2023-06-14T01:50:47;6.33;;;4.57;;
78416;SDS011;67715;46.170;6.140;2023-06-14T01:53:14;9.73;;;4.97;;
78416;SDS011;67715;46.170;6.140;2023-06-14T01:55:40;6.30;;;4.85;;
78416;SDS011;67715;46.170;6.140;2023-06-14T01:58:09;6.93;;;4.38;;
78416;SDS011;67715;46.170;6.140;2023-06-14T02:00:35;6.72;;;4.03;;
78416;SDS011;67715;46.170;6.140;2023-06-14T02:03:01;6.70;;;4.47;;
78416;SDS011;67715;46.170;6.140;2023-06-14T02:05:27;5.93;;;4.03;;
78416;SDS011;67715;46.170;6.140;2023-06-14T02:07:52;4.80;;;3.73;;
78416;SDS011;67715;46.170;6.140;2023-06-14T02:10:18;6.20;;;4.72;;
78416;SDS011;67715;46.170;6.140;2023-06-14T02:12:43;6.22;;;4.88;;
78416;SDS011;67715;46.170;6.140;2023-06-14T02:15:09;6.65;;;4.47;;
78416;SDS011;67715;46.170;6.140;2023-06-14T02:17:42;6.85;;;4.75;;
78416;SDS011;67715;46.170;6.140;2023-06-14T02:20:08;5.88;;;4.30;;
78416;SDS011;67715;46.170;6.140;2023-06-14T02:22:34;5.70;;;3.92;;
78416;SDS011;67715;46.170;6.140;2023-06-14T02:24:59;5.45;;;3.97;;
78416;SDS011;67715;46.170;6.140;2023-06-14T02:27:25;5.15;;;4.25;;
78416;SDS011;67715;46.170;6.140;2023-06-14T02:29:50;7.03;;;4.77;;
78416;SDS011;67715;46.170;6.140;2023-06-14T02:32:15;5.90;;;4.57;;
78416;SDS011;67715;46.170;6.140;2023-06-14T02:34:41;6.07;;;4.07;;
78416;SDS011;67715;46.170;6.140;2023-06-14T02:37:06;7.57;;;3.97;;
78416;SDS011;67715;46.170;6.140;2023-06-14T02:39:32;5.38;;;4.20;;
78416;SDS011;67715;46.170;6.140;2023-06-14T02:41:57;5.80;;;4.40;;
78416;SDS011;67715;46.170;6.140;2023-06-14T02:44:26;5.73;;;4.00;;
78416;SDS011;67715;46.170;6.140;2023-06-14T02:46:52;7.13;;;4.80;;
78416;SDS011;67715;46.170;6.140;2023-06-14T02:49:18;7.15;;;4.40;;
78416;SDS011;67715;46.170;6.140;2023-06-14T02:51:43;7.27;;;4.70;;
78416;SDS011;67715;46.170;6.140;2023-06-14T02:54:09;6.47;;;4.60;;
78416;SDS011;67715;46.170;6.140;2023-06-14T02:56:35;6.95;;;4.75;;
78416;SDS011;67715;46.170;6.140;2023-06-14T02:59:00;7.03;;;4.82;;
78416;SDS011;67715;46.170;6.140;2023-06-14T03:01:26;5.43;;;4.25;;
78416;SDS011;67715;46.170;6.140;2023-06-14T03:03:59;5.55;;;3.80;;
78416;SDS011;67715;46.170;6.140;2023-06-14T03:06:26;6.60;;;4.28;;
78416;SDS011;67715;46.170;6.140;2023-06-14T03:08:54;6.50;;;4.10;;
78416;SDS011;67715;46.170;6.140;2023-06-14T03:11:20;4.82;;;4.28;;
78416;SDS011;67715;46.170;6.140;2023-06-14T03:13:45;5.45;;;4.00;;
78416;SDS011;67715;46.170;6.140;2023-06-14T03:16:11;7.15;;;4.28;;
78416;SDS011;67715;46.170;6.140;2023-06-14T03:18:37;6.40;;;4.30;;
78416;SDS011;67715;46.170;6.140;2023-06-14T03:21:02;5.30;;;4.10;;
78416;SDS011;67715;46.170;6.140;2023-06-14T03:23:28;7.43;;;4.53;;
78416;SDS011;67715;46.170;6.140;2023-06-14T03:25:53;5.40;;;4.00;;
78416;SDS011;67715;46.170;6.140;2023-06-14T03:28:19;5.75;;;3.95;;
78416;SDS011;67715;46.170;6.140;2023-06-14T03:30:44;6.45;;;4.50;;
78416;SDS011;67715;46.170;6.140;2023-06-14T03:33:10;6.10;;;4.18;;
78416;SDS011;67715;46.170;6.140;2023-06-14T03:35:35;4.30;;;3.43;;
78416;SDS011;67715;46.170;6.140;2023-06-14T03:38:01;5.03;;;3.80;;
78416;SDS011;67715;46.170;6.140;2023-06-14T03:40:28;6.05;;;4.22;;
78416;SDS011;67715;46.170;6.140;2023-06-14T03:42:54;6.95;;;4.20;;
78416;SDS011;67715;46.170;6.140;2023-06-14T03:45:20;5.10;;;3.83;;
78416;SDS011;67715;46.170;6.140;2023-06-14T03:47:45;5.45;;;3.70;;
78416;SDS011;67715;46.170;6.140;2023-06-14T03:50:11;7.20;;;3.78;;
78416;SDS011;67715;46.170;6.140;2023-06-14T03:52:36;7.47;;;4.23;;
78416;SDS011;67715;46.170;6.140;2023-06-14T03:55:01;8.70;;;3.93;;
78416;SDS011;67715;46.170;6.140;2023-06-14T03:57:27;6.57;;;4.53;;
78416;SDS011;67715;46.170;6.140;2023-06-14T03:59:54;5.47;;;3.88;;
78416;SDS011;67715;46.170;6.140;2023-06-14T04:02:19;5.57;;;3.90;;
78416;SDS011;67715;46.170;6.140;2023-06-14T04:04:45;4.97;;;3.93;;
78416;SDS011;67715;46.170;6.140;2023-06-14T04:07:14;6.65;;;4.22;;
78416;SDS011;67715;46.170;6.140;2023-06-14T04:09:40;5.10;;;3.95;;
78416;SDS011;67715;46.170;6.140;2023-06-14T04:12:06;6.45;;;4.35;;
78416;SDS011;67715;46.170;6.140;2023-06-14T04:14:33;5.53;;;4.07;;
78416;SDS011;67715;46.170;6.140;2023-06-14T04:16:59;5.40;;;3.63;;
78416;SDS011;67715;46.170;6.140;2023-06-14T04:19:24;6.00;;;4.13;;
78416;SDS011;67715;46.170;6.140;2023-06-14T04:21:49;5.97;;;3.80;;
78416;SDS011;67715;46.170;6.140;2023-06-14T04:24:15;6.07;;;3.92;;
78416;SDS011;67715;46.170;6.140;2023-06-14T04:26:43;5.23;;;3.53;;
78416;SDS011;67715;46.170;6.140;2023-06-14T04:29:13;5.55;;;3.72;;
78416;SDS011;67715;46.170;6.140;2023-06-14T04:31:42;8.20;;;5.20;;
78416;SDS011;67715;46.170;6.140;2023-06-14T04:34:07;5.60;;;3.45;;
78416;SDS011;67715;46.170;6.140;2023-06-14T04:36:33;6.18;;;3.75;;
78416;SDS011;67715;46.170;6.140;2023-06-14T04:39:00;5.63;;;3.80;;
78416;SDS011;67715;46.170;6.140;2023-06-14T04:41:28;4.30;;;3.30;;
78416;SDS011;67715;46.170;6.140;2023-06-14T04:43:56;6.07;;;4.00;;
78416;SDS011;67715;46.170;6.140;2023-06-14T04:46:26;4.63;;;3.25;;
78416;SDS011;67715;46.170;6.140;2023-06-14T04:48:53;5.82;;;3.53;;
78416;SDS011;67715;46.170;6.140;2023-06-14T04:51:19;4.43;;;3.30;;
78416;SDS011;67715;46.170;6.140;2023-06-14T04:53:47;5.10;;;3.80;;
78416;SDS011;67715;46.170;6.140;2023-06-14T04:56:14;4.53;;;3.15;;
78416;SDS011;67715;46.170;6.140;2023-06-14T04:58:40;5.88;;;3.22;;
78416;SDS011;67715;46.170;6.140;2023-06-14T05:01:05;4.93;;;3.10;;
78416;SDS011;67715;46.170;6.140;2023-06-14T05:03:31;4.95;;;3.10;;
78416;SDS011;67715;46.170;6.140;2023-06-14T05:05:56;6.28;;;3.42;;
78416;SDS011;67715;46.170;6.140;2023-06-14T05:08:22;5.37;;;3.57;;
78416;SDS011;67715;46.170;6.140;2023-06-14T05:10:50;7.00;;;3.80;;
78416;SDS011;67715;46.170;6.140;2023-06-14T05:13:16;4.57;;;3.03;;
78416;SDS011;67715;46.170;6.140;2023-06-14T05:15:42;5.30;;;3.50;;
78416;SDS011;67715;46.170;6.140;2023-06-14T05:18:07;6.07;;;3.22;;
78416;SDS011;67715;46.170;6.140;2023-06-14T05:20:34;5.20;;;3.15;;
78416;SDS011;67715;46.170;6.140;2023-06-14T05:23:02;6.25;;;2.67;;
78416;SDS011;67715;46.170;6.140;2023-06-14T05:25:27;4.20;;;3.55;;
78416;SDS011;67715;46.170;6.140;2023-06-14T05:27:53;6.43;;;2.97;;
78416;SDS011;67715;46.170;6.140;2023-06-14T05:30:18;3.80;;;3.00;;
78416;SDS011;67715;46.170;6.140;2023-06-14T05:32:43;3.60;;;2.70;;
78416;SDS011;67715;46.170;6.140;2023-06-14T05:35:09;4.68;;;3.33;;
78416;SDS011;67715;46.170;6.140;2023-06-14T05:37:35;3.97;;;2.90;;
78416;SDS011;67715;46.170;6.140;2023-06-14T05:40:01;5.35;;;3.00;;
78416;SDS011;67715;46.170;6.140;2023-06-14T05:42:29;4.63;;;2.78;;
78416;SDS011;67715;46.170;6.140;2023-06-14T05:44:54;4.70;;;3.13;;
78416;SDS011;67715;46.170;6.140;2023-06-14T05:47:20;3.75;;;2.85;;
78416;SDS011;67715;46.170;6.140;2023-06-14T05:49:45;4.50;;;2.97;;
78416;SDS011;67715;46.170;6.140;2023-06-14T05:52:11;5.07;;;2.73;;
78416;SDS011;67715;46.170;6.140;2023-06-14T05:54:37;6.03;;;2.67;;
78416;SDS011;67715;46.170;6.140;2023-06-14T05:57:03;3.70;;;2.60;;
78416;SDS011;67715;46.170;6.140;2023-06-14T05:59:30;3.15;;;2.75;;
78416;SDS011;67715;46.170;6.140;2023-06-14T06:01:55;4.33;;;2.80;;
78416;SDS011;67715;46.170;6.140;2023-06-14T06:04:21;4.63;;;2.80;;
78416;SDS011;67715;46.170;6.140;2023-06-14T06:06:46;5.68;;;2.80;;
78416;SDS011;67715;46.170;6.140;2023-06-14T06:09:12;3.60;;;2.83;;
78416;SDS011;67715;46.170;6.140;2023-06-14T06:11:39;4.22;;;2.63;;
78416;SDS011;67715;46.170;6.140;2023-06-14T06:14:05;5.68;;;3.00;;
78416;SDS011;67715;46.170;6.140;2023-06-14T06:16:30;3.20;;;2.23;;
78416;SDS011;67715;46.170;6.140;2023-06-14T06:18:55;5.27;;;2.80;;
78416;SDS011;67715;46.170;6.140;2023-06-14T06:21:20;3.87;;;2.70;;
78416;SDS011;67715;46.170;6.140;2023-06-14T06:23:46;3.88;;;2.33;;
78416;SDS011;67715;46.170;6.140;2023-06-14T06:26:12;3.77;;;2.73;;
78416;SDS011;67715;46.170;6.140;2023-06-14T06:28:37;3.00;;;2.43;;
78416;SDS011;67715;46.170;6.140;2023-06-14T06:31:02;7.13;;;2.57;;
78416;SDS011;67715;46.170;6.140;2023-06-14T06:33:28;5.18;;;2.63;;
78416;SDS011;67715;46.170;6.140;2023-06-14T06:35:53;3.70;;;2.47;;
78416;SDS011;67715;46.170;6.140;2023-06-14T06:38:18;4.57;;;2.73;;
78416;SDS011;67715;46.170;6.140;2023-06-14T06:40:44;3.88;;;2.60;;
78416;SDS011;67715;46.170;6.140;2023-06-14T06:43:09;3.45;;;2.70;;
78416;SDS011;67715;46.170;6.140;2023-06-14T06:45:38;5.03;;;2.80;;
78416;SDS011;67715;46.170;6.140;2023-06-14T06:48:03;3.27;;;2.50;;
78416;SDS011;67715;46.170;6.140;2023-06-14T06:50:29;5.35;;;2.97;;
78416;SDS011;67715;46.170;6.140;2023-06-14T06:52:55;3.50;;;2.45;;
78416;SDS011;67715;46.170;6.140;2023-06-14T06:55:20;5.30;;;2.80;;
78416;SDS011;67715;46.170;6.140;2023-06-14T06:57:46;4.18;;;2.75;;
78416;SDS011;67715;46.170;6.140;2023-06-14T07:00:11;6.27;;;3.70;;
78416;SDS011;67715;46.170;6.140;2023-06-14T07:02:37;4.93;;;3.05;;
78416;SDS011;67715;46.170;6.140;2023-06-14T07:05:03;5.13;;;2.90;;
78416;SDS011;67715;46.170;6.140;2023-06-14T07:07:29;3.60;;;2.63;;
78416;SDS011;67715;46.170;6.140;2023-06-14T07:09:54;4.82;;;2.53;;
78416;SDS011;67715;46.170;6.140;2023-06-14T07:12:22;4.22;;;3.13;;
78416;SDS011;67715;46.170;6.140;2023-06-14T07:14:48;4.22;;;2.53;;
78416;SDS011;67715;46.170;6.140;2023-06-14T07:17:13;3.97;;;2.50;;
78416;SDS011;67715;46.170;6.140;2023-06-14T07:19:38;3.90;;;2.80;;
78416;SDS011;67715;46.170;6.140;2023-06-14T07:22:03;8.63;;;3.33;;
78416;SDS011;67715;46.170;6.140;2023-06-14T07:24:29;3.25;;;2.53;;
78416;SDS011;67715;46.170;6.140;2023-06-14T07:26:54;4.67;;;3.00;;
78416;SDS011;67715;46.170;6.140;2023-06-14T07:29:21;5.13;;;2.65;;
78416;SDS011;67715;46.170;6.140;2023-06-14T07:31:46;7.47;;;3.03;;
78416;SDS011;67715;46.170;6.140;2023-06-14T07:34:11;4.63;;;2.90;;
78416;SDS011;67715;46.170;6.140;2023-06-14T07:36:37;5.18;;;2.70;;
78416;SDS011;67715;46.170;6.140;2023-06-14T07:39:03;3.80;;;2.40;;
78416;SDS011;67715;46.170;6.140;2023-06-14T07:41:28;6.72;;;3.15;;
78416;SDS011;67715;46.170;6.140;2023-06-14T07:43:54;4.95;;;2.70;;
78416;SDS011;67715;46.170;6.140;2023-06-14T07:46:20;3.70;;;2.60;;
78416;SDS011;67715;46.170;6.140;2023-06-14T07:48:45;5.88;;;2.40;;
78416;SDS011;67715;46.170;6.140;2023-06-14T07:51:10;4.43;;;2.90;;
78416;SDS011;67715;46.170;6.140;2023-06-14T07:53:36;4.80;;;2.70;;
78416;SDS011;67715;46.170;6.140;2023-06-14T07:56:01;4.50;;;2.67;;
78416;SDS011;67715;46.170;6.140;2023-06-14T07:58:27;4.90;;;2.92;;
78416;SDS011;67715;46.170;6.140;2023-06-14T08:00:53;5.80;;;3.17;;
78416;SDS011;67715;46.170;6.140;2023-06-14T08:03:18;3.15;;;2.53;;
78416;SDS011;67715;46.170;6.140;2023-06-14T08:05:44;3.83;;;2.60;;
78416;SDS011;67715;46.170;6.140;2023-06-14T08:08:09;5.32;;;2.95;;
78416;SDS011;67715;46.170;6.140;2023-06-14T08:10:35;4.87;;;2.83;;
78416;SDS011;67715;46.170;6.140;2023-06-14T08:13:00;3.55;;;2.65;;
78416;SDS011;67715;46.170;6.140;2023-06-14T08:15:25;4.07;;;2.70;;
78416;SDS011;67715;46.170;6.140;2023-06-14T08:17:51;3.97;;;2.57;;
78416;SDS011;67715;46.170;6.140;2023-06-14T08:20:16;3.65;;;2.65;;
78416;SDS011;67715;46.170;6.140;2023-06-14T08:22:42;4.00;;;2.97;;
78416;SDS011;67715;46.170;6.140;2023-06-14T08:25:08;4.30;;;2.97;;
78416;SDS011;67715;46.170;6.140;2023-06-14T08:27:34;5.50;;;2.80;;
78416;SDS011;67715;46.170;6.140;2023-06-14T08:29:59;4.63;;;2.95;;
78416;SDS011;67715;46.170;6.140;2023-06-14T08:32:24;4.55;;;3.00;;
78416;SDS011;67715;46.170;6.140;2023-06-14T08:34:50;5.30;;;3.10;;
78416;SDS011;67715;46.170;6.140;2023-06-14T08:37:15;5.50;;;2.60;;
78416;SDS011;67715;46.170;6.140;2023-06-14T08:39:41;3.67;;;2.80;;
78416;SDS011;67715;46.170;6.140;2023-06-14T08:42:06;3.67;;;2.80;;
78416;SDS011;67715;46.170;6.140;2023-06-14T08:44:32;5.43;;;2.97;;
78416;SDS011;67715;46.170;6.140;2023-06-14T08:46:59;6.78;;;2.65;;
78416;SDS011;67715;46.170;6.140;2023-06-14T08:49:25;4.30;;;2.47;;
78416;SDS011;67715;46.170;6.140;2023-06-14T08:51:53;4.25;;;2.83;;
78416;SDS011;67715;46.170;6.140;2023-06-14T08:54:25;3.90;;;2.80;;
78416;SDS011;67715;46.170;6.140;2023-06-14T08:56:54;4.13;;;2.92;;
78416;SDS011;67715;46.170;6.140;2023-06-14T08:59:23;5.82;;;2.47;;
78416;SDS011;67715;46.170;6.140;2023-06-14T09:01:50;4.47;;;3.08;;
78416;SDS011;67715;46.170;6.140;2023-06-14T09:04:17;4.60;;;2.47;;
78416;SDS011;67715;46.170;6.140;2023-06-14T09:06:44;4.97;;;3.13;;
78416;SDS011;67715;46.170;6.140;2023-06-14T09:09:10;4.63;;;2.85;;
78416;SDS011;67715;46.170;6.140;2023-06-14T09:11:36;5.30;;;3.30;;
78416;SDS011;67715;46.170;6.140;2023-06-14T09:14:01;4.70;;;2.95;;
78416;SDS011;67715;46.170;6.140;2023-06-14T09:16:27;9.27;;;3.30;;
78416;SDS011;67715;46.170;6.140;2023-06-14T09:18:53;3.90;;;2.70;;
78416;SDS011;67715;46.170;6.140;2023-06-14T09:21:18;4.32;;;2.92;;
78416;SDS011;67715;46.170;6.140;2023-06-14T09:23:45;4.30;;;2.80;;
78416;SDS011;67715;46.170;6.140;2023-06-14T09:26:15;4.05;;;3.00;;
78416;SDS011;67715;46.170;6.140;2023-06-14T09:28:42;4.05;;;3.08;;
78416;SDS011;67715;46.170;6.140;2023-06-14T09:31:09;4.57;;;2.78;;
78416;SDS011;67715;46.170;6.140;2023-06-14T09:33:36;4.70;;;2.92;;
78416;SDS011;67715;46.170;6.140;2023-06-14T09:36:01;4.80;;;2.75;;
78416;SDS011;67715;46.170;6.140;2023-06-14T09:38:27;4.00;;;2.60;;
78416;SDS011;67715;46.170;6.140;2023-06-14T09:40:52;5.57;;;3.35;;
78416;SDS011;67715;46.170;6.140;2023-06-14T09:43:17;3.80;;;2.87;;
78416;SDS011;67715;46.170;6.140;2023-06-14T09:45:43;4.78;;;3.03;;
78416;SDS011;67715;46.170;6.140;2023-06-14T09:48:11;4.20;;;3.50;;
78416;SDS011;67715;46.170;6.140;2023-06-14T09:50:36;5.68;;;3.42;;
78416;SDS011;67715;46.170;6.140;2023-06-14T09:53:03;3.95;;;3.08;;
78416;SDS011;67715;46.170;6.140;2023-06-14T09:55:36;6.15;;;3.28;;
78416;SDS011;67715;46.170;6.140;2023-06-14T09:58:04;6.18;;;2.83;;
78416;SDS011;67715;46.170;6.140;2023-06-14T10:00:32;3.90;;;2.70;;
78416;SDS011;67715;46.170;6.140;2023-06-14T10:03:00;7.20;;;3.15;;
78416;SDS011;67715;46.170;6.140;2023-06-14T10:05:28;3.90;;;3.00;;
78416;SDS011;67715;46.170;6.140;2023-06-14T10:08:03;3.78;;;2.90;;
78416;SDS011;67715;46.170;6.140;2023-06-14T10:10:29;4.03;;;3.00;;
78416;SDS011;67715;46.170;6.140;2023-06-14T10:12:55;3.42;;;3.08;;
78416;SDS011;67715;46.170;6.140;2023-06-14T10:15:23;3.80;;;3.15;;
78416;SDS011;67715;46.170;6.140;2023-06-14T10:17:57;4.43;;;2.85;;
78416;SDS011;67715;46.170;6.140;2023-06-14T10:20:47;5.38;;;3.38;;
78416;SDS011;67715;46.170;6.140;2023-06-14T10:23:17;3.38;;;2.83;;
78416;SDS011;67715;46.170;6.140;2023-06-14T10:25:45;4.85;;;2.90;;
78416;SDS011;67715;46.170;6.140;2023-06-14T10:28:22;4.10;;;2.70;;
78416;SDS011;67715;46.170;6.140;2023-06-14T10:33:34;5.85;;;2.58;;
78416;SDS011;67715;46.170;6.140;2023-06-14T10:41:37;4.07;;;2.85;;
78416;SDS011;67715;46.170;6.140;2023-06-14T10:46:37;3.38;;;2.47;;
78416;SDS011;67715;46.170;6.140;2023-06-14T10:49:02;4.28;;;3.00;;
78416;SDS011;67715;46.170;6.140;2023-06-14T10:51:29;3.38;;;2.60;;
78416;SDS011;67715;46.170;6.140;2023-06-14T10:53:55;3.97;;;2.63;;
78416;SDS011;67715;46.170;6.140;2023-06-14T10:56:30;2.85;;;2.40;;
78416;SDS011;67715;46.170;6.140;2023-06-14T10:58:58;5.18;;;2.67;;
78416;SDS011;67715;46.170;6.140;2023-06-14T11:01:36;4.38;;;2.92;;
78416;SDS011;67715;46.170;6.140;2023-06-14T11:04:11;4.35;;;2.60;;
78416;SDS011;67715;46.170;6.140;2023-06-14T11:06:44;5.68;;;3.20;;
78416;SDS011;67715;46.170;6.140;2023-06-14T11:11:45;4.55;;;2.90;;
78416;SDS011;67715;46.170;6.140;2023-06-14T11:14:11;3.58;;;2.60;;
78416;SDS011;67715;46.170;6.140;2023-06-14T11:16:36;4.30;;;3.10;;
78416;SDS011;67715;46.170;6.140;2023-06-14T11:19:01;3.10;;;2.70;;
78416;SDS011;67715;46.170;6.140;2023-06-14T11:21:31;4.20;;;2.50;;
78416;SDS011;67715;46.170;6.140;2023-06-14T11:23:58;5.75;;;2.65;;
78416;SDS011;67715;46.170;6.140;2023-06-14T11:28:54;3.47;;;2.58;;
78416;SDS011;67715;46.170;6.140;2023-06-14T11:31:21;5.18;;;2.85;;
78416;SDS011;67715;46.170;6.140;2023-06-14T11:33:49;6.55;;;3.03;;
78416;SDS011;67715;46.170;6.140;2023-06-14T11:36:15;4.90;;;2.70;;
78416;SDS011;67715;46.170;6.140;2023-06-14T11:38:40;3.30;;;2.47;;
78416;SDS011;67715;46.170;6.140;2023-06-14T11:41:06;3.73;;;2.80;;
78416;SDS011;67715;46.170;6.140;2023-06-14T11:43:31;3.87;;;2.83;;
78416;SDS011;67715;46.170;6.140;2023-06-14T11:45:58;3.90;;;2.60;;
78416;SDS011;67715;46.170;6.140;2023-06-14T11:48:35;5.53;;;2.80;;
78416;SDS011;67715;46.170;6.140;2023-06-14T11:51:01;3.28;;;2.58;;
78416;SDS011;67715;46.170;6.140;2023-06-14T11:53:26;6.27;;;3.40;;
78416;SDS011;67715;46.170;6.140;2023-06-14T11:55:51;3.77;;;3.10;;
78416;SDS011;67715;46.170;6.140;2023-06-14T11:58:16;4.80;;;2.72;;
78416;SDS011;67715;46.170;6.140;2023-06-14T12:00:43;4.22;;;2.63;;
78416;SDS011;67715;46.170;6.140;2023-06-14T12:03:08;5.50;;;2.75;;
78416;SDS011;67715;46.170;6.140;2023-06-14T12:05:34;3.67;;;3.00;;
78416;SDS011;67715;46.170;6.140;2023-06-14T12:07:59;4.15;;;2.50;;
78416;SDS011;67715;46.170;6.140;2023-06-14T12:10:27;4.55;;;3.03;;
78416;SDS011;67715;46.170;6.140;2023-06-14T12:12:56;4.80;;;2.88;;
78416;SDS011;67715;46.170;6.140;2023-06-14T12:15:23;4.20;;;2.70;;
78416;SDS011;67715;46.170;6.140;2023-06-14T12:17:48;4.03;;;2.88;;
78416;SDS011;67715;46.170;6.140;2023-06-14T12:20:14;4.07;;;2.83;;
78416;SDS011;67715;46.170;6.140;2023-06-14T12:22:54;7.82;;;2.83;;
78416;SDS011;67715;46.170;6.140;2023-06-14T12:27:55;4.22;;;3.13;;
78416;SDS011;67715;46.170;6.140;2023-06-14T12:30:21;3.70;;;2.80;;
78416;SDS011;67715;46.170;6.140;2023-06-14T12:32:46;3.90;;;2.60;;
78416;SDS011;67715;46.170;6.140;2023-06-14T12:35:12;3.47;;;2.73;;
78416;SDS011;67715;46.170;6.140;2023-06-14T12:37:37;3.90;;;3.13;;
78416;SDS011;67715;46.170;6.140;2023-06-14T12:40:03;5.30;;;4.00;;
78416;SDS011;67715;46.170;6.140;2023-06-14T12:42:30;3.35;;;2.78;;
78416;SDS011;67715;46.170;6.140;2023-06-14T12:44:56;3.85;;;2.58;;
78416;SDS011;67715;46.170;6.140;2023-06-14T12:47:21;4.40;;;3.00;;
78416;SDS011;67715;46.170;6.140;2023-06-14T12:49:46;3.70;;;2.97;;
78416;SDS011;67715;46.170;6.140;2023-06-14T12:52:12;3.70;;;2.67;;
78416;SDS011;67715;46.170;6.140;2023-06-14T12:54:37;5.40;;;3.00;;
78416;SDS011;67715;46.170;6.140;2023-06-14T12:57:04;3.10;;;2.50;;
78416;SDS011;67715;46.170;6.140;2023-06-14T12:59:29;6.05;;;2.80;;
78416;SDS011;67715;46.170;6.140;2023-06-14T13:01:58;8.98;;;3.20;;
78416;SDS011;67715;46.170;6.140;2023-06-14T13:04:24;4.90;;;2.72;;
78416;SDS011;67715;46.170;6.140;2023-06-14T13:06:49;4.00;;;3.00;;
78416;SDS011;67715;46.170;6.140;2023-06-14T13:09:14;5.90;;;2.50;;
78416;SDS011;67715;46.170;6.140;2023-06-14T13:11:40;3.67;;;2.72;;
78416;SDS011;67715;46.170;6.140;2023-06-14T13:14:05;4.15;;;2.72;;
78416;SDS011;67715;46.170;6.140;2023-06-14T13:16:31;5.63;;;3.00;;
78416;SDS011;67715;46.170;6.140;2023-06-14T13:18:56;3.40;;;2.50;;
78416;SDS011;67715;46.170;6.140;2023-06-14T13:21:21;5.50;;;2.80;;
78416;SDS011;67715;46.170;6.140;2023-06-14T13:23:47;6.13;;;3.30;;
78416;SDS011;67715;46.170;6.140;2023-06-14T13:26:12;4.20;;;2.60;;
78416;SDS011;67715;46.170;6.140;2023-06-14T13:28:37;4.95;;;2.75;;
78416;SDS011;67715;46.170;6.140;2023-06-14T13:31:03;3.67;;;2.70;;
78416;SDS011;67715;46.170;6.140;2023-06-14T13:33:28;5.78;;;3.08;;
78416;SDS011;67715;46.170;6.140;2023-06-14T13:35:54;5.43;;;2.80;;
78416;SDS011;67715;46.170;6.140;2023-06-14T13:38:19;3.58;;;2.45;;
78416;SDS011;67715;46.170;6.140;2023-06-14T13:40:45;4.57;;;2.55;;
78416;SDS011;67715;46.170;6.140;2023-06-14T13:43:10;4.63;;;2.70;;
78416;SDS011;67715;46.170;6.140;2023-06-14T13:45:36;5.30;;;2.78;;
78416;SDS011;67715;46.170;6.140;2023-06-14T13:48:01;4.63;;;3.00;;
78416;SDS011;67715;46.170;6.140;2023-06-14T13:50:26;5.80;;;3.20;;
78416;SDS011;67715;46.170;6.140;2023-06-14T13:52:52;4.63;;;2.42;;
78416;SDS011;67715;46.170;6.140;2023-06-14T13:55:18;5.60;;;2.90;;
78416;SDS011;67715;46.170;6.140;2023-06-14T13:57:43;3.90;;;2.60;;
78416;SDS011;67715;46.170;6.140;2023-06-14T14:00:10;3.95;;;2.90;;
78416;SDS011;67715;46.170;6.140;2023-06-14T14:02:36;4.43;;;2.28;;
78416;SDS011;67715;46.170;6.140;2023-06-14T14:05:02;4.88;;;2.63;;
78416;SDS011;67715;46.170;6.140;2023-06-14T14:07:28;3.53;;;2.78;;
78416;SDS011;67715;46.170;6.140;2023-06-14T14:09:54;5.53;;;2.35;;
78416;SDS011;67715;46.170;6.140;2023-06-14T14:12:22;4.47;;;2.60;;
78416;SDS011;67715;46.170;6.140;2023-06-14T14:14:48;3.28;;;2.45;;
78416;SDS011;67715;46.170;6.140;2023-06-14T14:17:13;3.70;;;2.57;;
78416;SDS011;67715;46.170;6.140;2023-06-14T14:19:39;4.50;;;2.80;;
78416;SDS011;67715;46.170;6.140;2023-06-14T14:22:04;4.10;;;2.77;;
78416;SDS011;67715;46.170;6.140;2023-06-14T14:24:30;4.07;;;2.85;;
78416;SDS011;67715;46.170;6.140;2023-06-14T14:26:55;3.00;;;2.50;;
78416;SDS011;67715;46.170;6.140;2023-06-14T14:29:24;3.72;;;2.72;;
78416;SDS011;67715;46.170;6.140;2023-06-14T14:31:50;5.82;;;2.92;;
78416;SDS011;67715;46.170;6.140;2023-06-14T14:34:15;5.93;;;3.05;;
78416;SDS011;67715;46.170;6.140;2023-06-14T14:36:40;4.30;;;2.53;;
78416;SDS011;67715;46.170;6.140;2023-06-14T14:39:07;5.22;;;2.80;;
78416;SDS011;67715;46.170;6.140;2023-06-14T14:41:33;3.67;;;2.72;;
78416;SDS011;67715;46.170;6.140;2023-06-14T14:43:58;5.03;;;2.67;;
78416;SDS011;67715;46.170;6.140;2023-06-14T14:46:25;4.18;;;2.63;;
78416;SDS011;67715;46.170;6.140;2023-06-14T14:48:50;5.05;;;2.83;;
78416;SDS011;67715;46.170;6.140;2023-06-14T14:51:16;4.57;;;3.00;;
78416;SDS011;67715;46.170;6.140;2023-06-14T14:53:41;5.55;;;3.03;;
78416;SDS011;67715;46.170;6.140;2023-06-14T14:56:07;3.40;;;2.50;;
78416;SDS011;67715;46.170;6.140;2023-06-14T14:58:32;5.93;;;2.60;;
78416;SDS011;67715;46.170;6.140;2023-06-14T15:00:57;4.50;;;3.00;;